Portillo, Chile
Current Conditions -  °F | °C
As of 5:00 PM on Friday 28 Nov 2014 (Local Time) from SCAT Reporting Station
Broken Clouds Broken Clouds  
Wind Chill: 64°   Ceiling: 20000
Heat Index: 64°   Visibility: 6mi
Dew Point: 52°   Wind: 10mph
Humidity: 64%   Direction: 240°WSW
Pressure: 29.91"   Gusts: NA
Location:  25.47°S, 70.12°W
Report Text: SCAT 282000Z 24009KT 210V290 9999 FEW023 BKN200 18/11 Q1013
Loading
Personal Weather Stations






























Interactive Weather Map New forecast layout! Learn more

10-Day Weather Forecast

Advertisements
Track Severe Weather on mobile